Time;durP1;ratioP1;P1;durP2;ratioP2;P2;SDS_P1;SDS_P2;PMS_P1;PMS_P2;Temp;Humidity;BMP_temperature;BMP_pressure;BME280_temperature;BME280_humidity;BME280_pressure;Samples;Min_cycle;Max_cycle;Signal;HPM_P1;HPM_P2
2021/01/31 00:00:24;;;;;;;1999.90;999.90;;;;;;;-3.28;69.45;100153.97;15711756;28;20041;-58
2021/01/31 00:07:57;;;;;;;1999.90;999.90;;;;;;;-3.17;69.49;100149.47;15673806;28;20046;-58
2021/01/31 00:15:31;;;;;;;1999.90;999.90;;;;;;;-3.06;69.08;100159.41;15715712;28;20048;-58
2021/01/31 00:23:04;;;;;;;1999.90;999.90;;;;;;;-3.35;70.95;100155.25;15680500;28;20075;-57
2021/01/31 00:30:36;;;;;;;;;;;;;;;-3.13;71.73;100155.22;15686637;28;20420;-58
2021/01/31 00:38:11;;;;;;;1999.90;999.90;;;;;;;-2.89;72.26;100156.59;15709338;28;19932;-58
2021/01/31 00:45:43;;;;;;;1999.90;999.90;;;;;;;-2.86;72.98;100157.97;15719762;28;20186;-56
2021/01/31 00:53:15;;;;;;;1999.90;999.90;;;;;;;-2.75;73.13;100165.19;15696392;28;20481;-56
2021/01/31 01:00:50;;;;;;;1999.90;999.90;;;;;;;-2.59;73.22;100169.72;15723688;28;20152;-59
2021/01/31 01:08:26;;;;;;;1999.90;999.90;;;;;;;-2.66;73.57;100167.19;15681280;28;20056;-57
2021/01/31 01:15:57;;;;;;;1999.90;999.90;;;;;;;-2.60;73.30;100167.25;15705810;28;20048;-57
2021/01/31 01:23:30;;;;;;;1999.90;999.90;;;;;;;-2.62;74.21;100153.81;15722020;28;20037;-57
2021/01/31 01:31:07;;;;;;;1999.90;999.90;;;;;;;-2.70;73.96;100152.41;15697096;28;20045;-57
2021/01/31 01:38:42;;;;;;;1999.90;999.90;;;;;;;-2.82;73.61;100156.34;15665423;28;20052;-57
2021/01/31 01:46:34;;;;;;;1999.90;999.90;;;;;;;-2.93;73.20;100155.44;15645622;28;20148;-56
2021/01/31 01:54:13;;;;;;;1999.90;999.90;;;;;;;-2.80;72.65;100149.59;15634472;28;20265;-54
2021/01/31 02:01:57;;;;;;;1999.90;999.90;;;;;;;-2.93;72.55;100150.78;15653554;28;20056;-56
2021/01/31 02:09:30;;;;;;;1999.90;999.90;;;;;;;-3.14;73.03;100143.47;15644408;28;20447;-56
2021/01/31 02:17:08;;;;;;;1999.90;999.90;;;;;;;-3.35;72.16;100141.59;15657239;28;20411;-57
2021/01/31 02:24:58;;;;;;;1999.90;999.90;;;;;;;-3.61;70.92;100143.22;15650733;28;20141;-57
2021/01/31 02:32:54;;;;;;;1999.90;999.90;;;;;;;-3.55;70.98;100150.38;15671134;28;20123;-56
2021/01/31 02:40:32;;;;;;;1999.90;999.90;;;;;;;-3.84;72.57;100150.56;15724457;28;20048;-57
2021/01/31 02:48:09;;;;;;;1999.90;999.90;;;;;;;-3.64;71.23;100154.66;15693583;28;20151;-55
2021/01/31 02:55:47;;;;;;;1999.90;999.90;;;;;;;-3.97;69.96;100164.53;15709481;28;20040;-57
2021/01/31 03:03:23;;;;;;;1999.90;999.90;;;;;;;-4.20;71.10;100165.56;15709400;28;20045;-56
2021/01/31 03:11:01;;;;;;;1999.90;999.90;;;;;;;-4.10;71.17;100156.72;15663707;28;20067;-58
2021/01/31 03:18:38;;;;;;;1999.90;999.90;;;;;;;-4.16;71.48;100158.56;15690735;28;20048;-55
2021/01/31 03:26:18;;;;;;;1999.90;999.90;;;;;;;-4.28;70.89;100163.25;15694960;28;20044;-56
2021/01/31 03:33:56;;;;;;;1999.90;999.90;;;;;;;-4.31;70.28;100168.38;15718722;28;20160;-58
2021/01/31 03:41:30;;;;;;;1999.90;999.90;;;;;;;-4.50;70.57;100173.25;15658937;28;20049;-56
2021/01/31 03:49:06;;;;;;;1999.90;999.90;;;;;;;-5.40;70.08;100164.00;15705041;28;20041;-58
2021/01/31 03:56:43;;;;;;;1999.90;999.90;;;;;;;-5.50;69.74;100177.41;15726915;28;20554;-55
2021/01/31 04:04:19;;;;;;;1999.90;999.90;;;;;;;-5.68;70.38;100181.09;15689158;28;20041;-54
2021/01/31 04:12:01;;;;;;;1999.90;999.90;;;;;;;-5.16;71.71;100183.78;15716447;28;20045;-58
2021/01/31 04:19:32;;;;;;;1999.90;999.90;;;;;;;-5.15;71.42;100171.84;15709928;28;20037;-56
2021/01/31 04:27:05;;;;;;;1999.90;999.90;;;;;;;-5.42;71.94;100179.72;15690980;28;20053;-57
2021/01/31 04:34:36;;;;;;;1999.90;999.90;;;;;;;-5.38;70.75;100167.31;15708418;28;20045;-58
2021/01/31 04:42:09;;;;;;;1999.90;999.90;;;;;;;-5.89;71.19;100179.00;15690624;28;20049;-57
2021/01/31 04:50:01;;;;;;;1999.90;999.90;;;;;;;-5.88;71.42;100167.91;15704841;28;20494;-56
2021/01/31 04:57:38;;;;;;;;;;;;;;;-5.66;71.69;100173.53;15722127;28;20068;-54
2021/01/31 05:05:19;;;;;;;1999.90;999.90;;;;;;;-5.79;71.94;100167.53;15691321;28;19928;-57
2021/01/31 05:13:07;;;;;;;1999.90;999.90;;;;;;;-5.57;71.01;100182.13;15711934;28;20059;-57
2021/01/31 05:20:39;;;;;;;1999.90;999.90;;;;;;;-5.76;70.78;100183.34;15714676;28;20118;-56
2021/01/31 05:28:13;;;;;;;1999.90;999.90;;;;;;;-5.77;70.96;100187.97;15721772;28;20365;-52
2021/01/31 05:35:46;;;;;;;1999.90;999.90;;;;;;;-5.93;71.62;100189.56;15705816;28;20037;-56
2021/01/31 05:43:23;;;;;;;1999.90;999.90;;;;;;;-5.86;70.22;100187.50;15683990;28;20057;-56
2021/01/31 05:50:55;;;;;;;1999.90;999.90;;;;;;;-6.27;71.47;100196.63;15715251;28;20037;-57
2021/01/31 05:58:27;;;;;;;1999.90;999.90;;;;;;;-6.20;71.98;100201.97;15739158;28;20489;-56
2021/01/31 06:06:07;;;;;;;1999.90;999.90;;;;;;;-6.40;72.69;100208.56;15664285;28;20105;-55
2021/01/31 06:13:40;;;;;;;1999.90;999.90;;;;;;;-6.45;72.62;100211.16;15712212;28;20053;-56
2021/01/31 06:21:13;;;;;;;1999.90;999.90;;;;;;;-6.15;71.36;100210.22;15708492;28;20064;-54
2021/01/31 06:28:47;;;;;;;1999.90;999.90;;;;;;;-6.55;71.92;100218.22;15699840;28;20765;-55
2021/01/31 06:36:33;;;;;;;1999.90;999.90;;;;;;;-6.42;71.67;100218.00;15699763;28;20048;-56
2021/01/31 06:44:12;;;;;;;1999.90;999.90;;;;;;;-6.28;71.70;100221.31;15693806;28;20066;-56
2021/01/31 06:52:02;;;;;;;1999.90;999.90;;;;;;;-6.21;70.96;100219.31;15696638;28;20120;-57
2021/01/31 06:59:42;;;;;;;1999.90;999.90;;;;;;;-6.31;71.20;100235.38;15691690;28;20040;-56
2021/01/31 07:07:53;;;;;;;1999.90;999.90;;;;;;;-6.05;69.51;100243.06;15695984;28;20048;-56
2021/01/31 07:15:29;;;;;;;1999.90;999.90;;;;;;;-6.14;69.58;100237.16;15708233;28;20048;-54
2021/01/31 07:23:25;;;;;;;1999.90;999.90;;;;;;;-6.17;69.93;100242.22;15693301;28;20036;-57
2021/01/31 07:31:05;;;;;;;1999.90;999.90;;;;;;;-6.19;70.09;100250.59;15707022;28;20051;-57
2021/01/31 07:38:43;;;;;;;1999.90;999.90;;;;;;;-6.17;69.41;100248.47;15706354;28;20040;-56
2021/01/31 07:46:19;;;;;;;1999.90;999.90;;;;;;;-6.39;70.34;100247.38;15747133;28;20059;-57
2021/01/31 07:53:50;;;;;;;1999.90;999.90;;;;;;;-6.07;70.11;100250.63;15722064;28;20049;-56
2021/01/31 08:01:49;;;;;;;1999.90;999.90;;;;;;;-5.81;69.72;100247.41;15672299;28;20520;-55
2021/01/31 08:09:52;;;;;;;1999.90;999.90;;;;;;;-5.04;68.68;100251.75;15672666;28;20037;-55
2021/01/31 08:17:48;;;;;;;1999.90;999.90;;;;;;;-4.94;67.49;100241.91;15654408;28;20454;-57
2021/01/31 08:25:22;;;;;;;1999.90;999.90;;;;;;;-4.52;66.08;100246.19;15673363;28;20049;-55
2021/01/31 08:33:26;;;;;;;1999.90;999.90;;;;;;;-3.67;64.26;100248.66;15660687;28;20061;-52
2021/01/31 08:41:12;;;;;;;1999.90;999.90;;;;;;;-3.13;62.42;100259.75;15587503;28;20053;-52
2021/01/31 08:48:50;;;;;;;1999.90;999.90;;;;;;;-3.95;65.23;100260.53;15619911;28;20046;-51
2021/01/31 08:56:26;;;;;;;1999.90;999.90;;;;;;;-1.70;59.99;100261.97;15603481;28;20095;-51
2021/01/31 09:03:59;;;;;;;1999.90;999.90;;;;;;;-1.63;61.21;100279.00;15618762;28;20104;-54
2021/01/31 09:11:30;;;;;;;1999.90;999.90;;;;;;;0.34;55.47;100279.88;15618825;28;20053;-55
2021/01/31 09:19:06;;;;;;;1999.90;999.90;;;;;;;0.65;53.94;100274.34;15619662;28;20118;-54
2021/01/31 09:26:38;;;;;;;1999.90;999.90;;;;;;;0.49;55.41;100274.34;15613822;28;20046;-51
2021/01/31 09:34:11;;;;;;;1999.90;999.90;;;;;;;1.37;52.43;100284.81;15721320;28;20052;-55
2021/01/31 09:41:43;;;;;;;1999.90;999.90;;;;;;;3.01;48.53;100285.09;15787255;28;20210;-54
2021/01/31 09:49:19;;;;;;;1999.90;999.90;;;;;;;4.18;46.67;100280.72;15720738;28;20079;-53
2021/01/31 09:56:53;;;;;;;1999.90;999.90;;;;;;;3.76;48.21;100289.94;15739374;28;20326;-53
2021/01/31 10:04:26;;;;;;;1999.90;999.90;;;;;;;1.72;52.09;100280.19;15738087;28;20043;-51
2021/01/31 10:12:29;;;;;;;1999.90;999.90;;;;;;;5.98;44.19;100282.44;15722767;28;20448;-58
2021/01/31 10:20:24;;;;;;;1999.90;999.90;;;;;;;4.93;47.00;100288.78;15735686;28;20102;-50
2021/01/31 10:27:57;;;;;;;1999.90;999.90;;;;;;;9.52;38.55;100291.34;15753878;28;20116;-52
2021/01/31 10:35:33;;;;;;;1999.90;999.90;;;;;;;10.43;36.61;100279.72;15796428;28;20055;-55
2021/01/31 10:43:09;;;;;;;1999.90;999.90;;;;;;;4.24;47.32;100275.94;15783705;28;20051;-51
2021/01/31 10:50:42;;;;;;;1999.90;999.90;;;;;;;5.78;46.68;100273.44;15783539;28;20143;-51
2021/01/31 10:58:14;;;;;;;1999.90;999.90;;;;;;;3.96;49.62;100259.28;15800213;28;20488;-55
2021/01/31 11:05:46;;;;;;;1999.90;999.90;;;;;;;5.73;47.33;100268.03;15800023;28;20097;-57
2021/01/31 11:13:18;;;;;;;1999.90;999.90;;;;;;;9.03;40.93;100264.22;15780992;28;20123;-51
2021/01/31 11:20:51;;;;;;;1999.90;999.90;;;;;;;10.91;38.09;100260.31;15780829;28;20048;-51
2021/01/31 11:28:23;;;;;;;1999.90;999.90;;;;;;;11.18;37.47;100267.22;15799384;28;20040;-50
2021/01/31 11:35:55;;;;;;;1999.90;999.90;;;;;;;13.46;34.45;100265.47;15798828;28;20480;-52
2021/01/31 11:43:27;;;;;;;1999.90;999.90;;;;;;;12.56;34.97;100266.28;15798893;28;20044;-52
2021/01/31 11:50:59;;;;;;;1999.90;999.90;;;;;;;13.12;34.29;100252.16;15799137;28;20048;-53
2021/01/31 11:58:31;;;;;;;1999.90;999.90;;;;;;;12.99;35.21;100243.84;15712895;28;20044;-52
2021/01/31 12:06:04;;;;;;;1999.90;999.90;;;;;;;15.87;30.85;100237.66;15731724;28;20547;-51
2021/01/31 12:13:35;;;;;;;1999.90;999.90;;;;;;;14.88;31.13;100230.41;15730207;28;20075;-53
2021/01/31 12:21:10;;;;;;;1999.90;999.90;;;;;;;14.54;31.40;100229.38;15748480;28;20093;-51
2021/01/31 12:28:42;;;;;;;1999.90;999.90;;;;;;;15.25;29.89;100228.66;15746443;28;20049;-55
2021/01/31 12:36:15;;;;;;;1999.90;999.90;;;;;;;15.55;28.74;100223.09;15741949;28;20085;-53
2021/01/31 12:43:48;;;;;;;1999.90;999.90;;;;;;;17.15;27.34;100210.16;15745609;28;20455;-51
2021/01/31 12:51:20;;;;;;;1999.90;999.90;;;;;;;18.86;24.91;100204.59;15710455;28;20456;-50
2021/01/31 12:58:52;;;;;;;1999.90;999.90;;;;;;;19.66;24.40;100201.38;15727672;28;20097;-53
2021/01/31 13:06:24;;;;;;;1999.90;999.90;;;;;;;21.15;22.65;100194.97;15744886;28;20520;-53
2021/01/31 13:13:56;;;;;;;1999.90;999.90;;;;;;;17.19;25.74;100179.97;15744543;28;20041;-54
2021/01/31 13:21:29;;;;;;;1999.90;999.90;;;;;;;14.71;28.73;100169.94;15743373;28;20120;-54
2021/01/31 13:29:01;;;;;;;1999.90;999.90;;;;;;;10.90;34.68;100168.56;15743471;28;20094;-53
2021/01/31 13:36:35;;;;;;;1999.90;999.90;;;;;;;8.51;38.69;100161.50;15742529;28;20166;-54
2021/01/31 13:44:06;;;;;;;;;;;;;;;8.70;39.38;100159.13;15743302;28;20047;-54
2021/01/31 13:51:39;;;;;;;1999.90;999.90;;;;;;;6.84;40.93;100144.38;15742045;28;20396;-54
2021/01/31 13:59:14;;;;;;;1999.90;999.90;;;;;;;10.34;36.41;100148.72;15723667;28;20052;-51
2021/01/31 14:06:46;;;;;;;1999.90;999.90;;;;;;;12.80;31.97;100148.53;15723187;28;20063;-54
2021/01/31 14:14:18;;;;;;;1999.90;999.90;;;;;;;7.18;40.61;100131.69;15705245;28;20049;-53
2021/01/31 14:21:51;;;;;;;1999.90;999.90;;;;;;;4.10;48.26;100118.50;15739200;28;20498;-53
2021/01/31 14:29:22;;;;;;;1999.90;999.90;;;;;;;3.22;51.64;100097.34;15720989;28;20485;-55
2021/01/31 14:36:55;;;;;;;1999.90;999.90;;;;;;;3.30;52.28;100089.22;15704913;28;20416;-54
2021/01/31 14:44:28;;;;;;;1999.90;999.90;;;;;;;2.32;55.31;100090.88;15721154;28;20409;-58
2021/01/31 14:52:01;;;;;;;1999.90;999.90;;;;;;;2.65;54.67;100082.75;15720615;28;20313;-56
2021/01/31 14:59:32;;;;;;;1999.90;999.90;;;;;;;2.31;55.65;100090.06;15720335;28;20091;-57
2021/01/31 15:07:05;;;;;;;1999.90;999.90;;;;;;;2.50;55.71;100094.75;15737337;28;20040;-56
2021/01/31 15:14:37;;;;;;;1999.90;999.90;;;;;;;2.16;56.62;100081.97;15719498;28;20041;-58
2021/01/31 15:22:11;;;;;;;1999.90;999.90;;;;;;;2.20;56.36;100083.03;15738003;28;20055;-56
2021/01/31 15:29:42;;;;;;;1999.90;999.90;;;;;;;1.80;57.44;100076.03;15711968;28;20045;-55
2021/01/31 15:37:15;;;;;;;1999.90;999.90;;;;;;;1.85;57.07;100070.47;15762062;28;20059;-58
2021/01/31 15:44:46;;;;;;;1999.90;999.90;;;;;;;1.63;57.05;100054.44;15746004;28;20106;-59
2021/01/31 15:52:19;;;;;;;1999.90;999.90;;;;;;;1.58;58.10;100062.75;15713610;28;20049;-58
2021/01/31 15:59:51;;;;;;;1999.90;999.90;;;;;;;1.05;58.35;100040.66;15735302;28;20033;-57
2021/01/31 16:07:25;;;;;;;;;;;;;;;0.71;60.13;100034.28;15693107;28;20053;-57
2021/01/31 16:14:56;;;;;;;1999.90;999.90;;;;;;;0.61;58.59;100037.09;15717667;28;20417;-56
2021/01/31 16:22:29;;;;;;;1999.90;999.90;;;;;;;0.38;60.57;100042.16;15752101;28;20050;-51
2021/01/31 16:30:00;;;;;;;1999.90;999.90;;;;;;;0.17;60.93;100046.91;15762125;28;20040;-57
2021/01/31 16:37:33;;;;;;;1999.90;999.90;;;;;;;0.21;60.34;100048.03;15768825;28;20638;-54
2021/01/31 16:45:06;;;;;;;1999.90;999.90;;;;;;;-0.06;60.49;100031.09;15752622;28;20482;-57
2021/01/31 16:52:39;;;;;;;1999.90;999.90;;;;;;;-0.49;60.95;100032.59;15742412;28;20438;-55
2021/01/31 17:00:14;;;;;;;1999.90;999.90;;;;;;;-0.64;61.38;100025.19;15748989;28;20302;-57
2021/01/31 17:07:47;;;;;;;1999.90;999.90;;;;;;;-0.92;62.76;100010.97;15748843;28;20051;-57
2021/01/31 17:15:21;;;;;;;1999.90;999.90;;;;;;;-0.91;63.64;100014.53;15722952;28;20037;-54
2021/01/31 17:22:54;;;;;;;1999.90;999.90;;;;;;;-1.01;63.37;100009.06;15743547;28;20048;-59
2021/01/31 17:30:29;;;;;;;1999.90;999.90;;;;;;;-1.18;62.86;100007.41;15742537;28;20048;-59
2021/01/31 17:38:01;;;;;;;1999.90;999.90;;;;;;;-1.85;66.76;99994.69;15738584;28;20150;-58
2021/01/31 17:45:33;;;;;;;1999.90;999.90;;;;;;;-1.55;66.86;99993.13;15722391;28;20070;-56
2021/01/31 17:53:06;;;;;;;1999.90;999.90;;;;;;;-1.74;66.70;99990.06;15729572;28;20795;-57
2021/01/31 18:00:37;;;;;;;1999.90;999.90;;;;;;;-2.19;68.66;99977.03;15722434;28;20141;-57
2021/01/31 18:08:10;;;;;;;1999.90;999.90;;;;;;;-1.86;66.02;99978.56;15738469;28;20049;-58
2021/01/31 18:15:42;;;;;;;1999.90;999.90;;;;;;;-2.00;64.82;99977.38;15720943;28;20170;-56
2021/01/31 18:23:15;;;;;;;1999.90;999.90;;;;;;;-1.81;64.79;99975.81;15739893;28;20386;-58
2021/01/31 18:30:54;;;;;;;1999.90;999.90;;;;;;;-2.21;67.63;99968.28;15706095;28;20064;-57
2021/01/31 18:38:28;;;;;;;1999.90;999.90;;;;;;;-2.09;64.70;99960.69;15738056;28;20051;-58
2021/01/31 18:46:02;;;;;;;1999.90;999.90;;;;;;;-2.28;66.56;99959.53;15727585;28;20076;-57
2021/01/31 18:53:36;;;;;;;1999.90;999.90;;;;;;;-2.74;70.52;99956.53;15738683;28;20051;-57
2021/01/31 19:01:08;;;;;;;1999.90;999.90;;;;;;;-2.56;68.37;99953.38;15737410;28;20066;-57
2021/01/31 19:08:41;;;;;;;1999.90;999.90;;;;;;;-3.39;72.51;99953.06;15737183;28;20066;-59
2021/01/31 19:16:13;;;;;;;1999.90;999.90;;;;;;;-2.85;68.20;99957.56;15723638;28;20045;-53
2021/01/31 19:23:46;;;;;;;1999.90;999.90;;;;;;;-2.92;70.32;99947.72;15736636;28;20040;-58
2021/01/31 19:31:18;;;;;;;1999.90;999.90;;;;;;;-3.67;72.04;99940.53;15718889;28;21720;-58
2021/01/31 19:38:52;;;;;;;1999.90;999.90;;;;;;;-3.08;68.96;99937.75;15717791;28;20062;-57
2021/01/31 19:46:23;;;;;;;1999.90;999.90;;;;;;;-3.29;66.66;99947.69;15735560;28;20491;-52
2021/01/31 19:53:59;;;;;;;1999.90;999.90;;;;;;;-3.24;67.30;99923.16;15736187;28;20044;-55
2021/01/31 20:01:31;;;;;;;1999.90;999.90;;;;;;;-3.36;65.95;99908.88;15734779;28;20059;-55
2021/01/31 20:09:04;;;;;;;1999.90;999.90;;;;;;;-3.20;68.15;99907.94;15716328;28;20143;-56
2021/01/31 20:16:36;;;;;;;1999.90;999.90;;;;;;;-3.62;71.28;99905.16;15734664;28;20109;-59
2021/01/31 20:24:09;;;;;;;1999.90;999.90;;;;;;;-3.55;67.78;99883.09;15734255;28;20055;-59
2021/01/31 20:31:41;;;;;;;1999.90;999.90;;;;;;;-3.56;66.49;99878.72;15749807;22;20044;-59
2021/01/31 20:39:13;;;;;;;1999.90;999.90;;;;;;;-3.50;65.28;99881.25;15722937;28;20033;-63
2021/01/31 20:46:46;;;;;;;1999.90;999.90;;;;;;;-3.63;65.08;99878.16;15736803;28;20044;-64
2021/01/31 20:54:18;;;;;;;1999.90;999.90;;;;;;;-3.83;64.95;99871.44;15696600;28;20044;-61
2021/01/31 21:01:50;;;;;;;1999.90;999.90;;;;;;;-4.01;65.56;99863.63;15699022;28;20045;-60
2021/01/31 21:09:23;;;;;;;1999.90;999.90;;;;;;;-4.13;64.60;99852.88;15674770;28;20044;-61
2021/01/31 21:16:54;;;;;;;1999.90;999.90;;;;;;;-4.19;64.37;99858.53;15724374;28;20040;-62
2021/01/31 21:24:27;;;;;;;1999.90;999.90;;;;;;;-4.28;63.90;99846.44;15689265;28;20376;-62
2021/01/31 21:31:59;;;;;;;1999.90;999.90;;;;;;;-4.24;66.45;99853.84;15720842;28;20073;-62
2021/01/31 21:39:31;;;;;;;1999.90;999.90;;;;;;;-4.05;64.94;99851.59;15701195;28;20044;-61
2021/01/31 21:47:03;;;;;;;1999.90;999.90;;;;;;;-4.21;64.11;99853.34;15727771;28;20124;-62
2021/01/31 21:54:35;;;;;;;1999.90;999.90;;;;;;;-4.43;64.46;99847.09;15678209;28;20049;-63
2021/01/31 22:02:07;;;;;;;1999.90;999.90;;;;;;;-4.60;65.10;99833.56;15679782;28;20041;-62
2021/01/31 22:09:40;;;;;;;1999.90;999.90;;;;;;;-4.82;65.22;99824.59;15681519;28;20051;-62
2021/01/31 22:17:13;;;;;;;1999.90;999.90;;;;;;;-4.88;69.81;99828.34;15656628;28;20046;-62
2021/01/31 22:24:45;;;;;;;1999.90;999.90;;;;;;;-4.39;68.87;99827.25;15649306;28;20044;-60
2021/01/31 22:32:17;;;;;;;1999.90;999.90;;;;;;;-4.58;66.14;99808.84;15662665;28;20071;-61
2021/01/31 22:39:49;;;;;;;1999.90;999.90;;;;;;;-4.65;65.52;99817.19;15681074;28;20052;-61
2021/01/31 22:47:21;;;;;;;1999.90;999.90;;;;;;;-4.89;66.22;99797.59;15680186;28;20048;-60
2021/01/31 22:54:53;;;;;;;1999.90;999.90;;;;;;;-4.86;65.94;99805.25;15678933;28;20126;-62
2021/01/31 23:02:25;;;;;;;1999.90;999.90;;;;;;;-4.99;66.31;99811.06;15680104;28;20072;-62
2021/01/31 23:09:57;;;;;;;1999.90;999.90;;;;;;;-5.38;71.27;99799.38;15644776;28;20048;-61
2021/01/31 23:17:29;;;;;;;1999.90;999.90;;;;;;;-5.06;68.54;99800.38;15679761;28;20138;-61
2021/01/31 23:25:01;;;;;;;1999.90;999.90;;;;;;;-5.21;68.72;99781.16;15661404;28;20131;-61
2021/01/31 23:32:33;;;;;;;1999.90;999.90;;;;;;;-5.26;70.91;99779.16;15679104;28;20045;-62
2021/01/31 23:40:09;;;;;;;1999.90;999.90;;;;;;;-5.35;71.95;99775.22;15677095;28;20037;-62
2021/01/31 23:47:41;;;;;;;1999.90;999.90;;;;;;;-5.54;72.14;99773.88;15641844;28;20076;-62
2021/01/31 23:55:14;;;;;;;1999.90;999.90;;;;;;;-5.65;71.44;99767.47;15669033;28;20033;-60
